createdAt,value
2019-03-09T00:00:52.888Z,8.00
2019-03-09T00:03:21.295Z,8.00
2019-03-09T00:05:49.600Z,7.90
2019-03-09T00:08:17.833Z,8.00
2019-03-09T00:10:46.085Z,8.00
2019-03-09T00:13:14.324Z,8.00
2019-03-09T00:15:42.670Z,7.90
2019-03-09T00:18:10.962Z,8.00
2019-03-09T00:20:39.212Z,8.00
2019-03-09T00:30:41.910Z,7.90
2019-03-09T00:33:10.150Z,7.90
2019-03-09T00:35:38.413Z,7.90
2019-03-09T00:38:06.648Z,7.90
2019-03-09T00:40:34.979Z,7.90
2019-03-09T00:43:03.278Z,7.90
2019-03-09T00:45:31.625Z,7.90
2019-03-09T00:47:59.860Z,7.90
2019-03-09T00:50:28.109Z,7.90
2019-03-09T00:52:56.360Z,7.90
2019-03-09T00:55:24.604Z,7.90
2019-03-09T00:57:52.857Z,7.90
2019-03-09T01:00:21.305Z,7.90
2019-03-09T01:02:51.167Z,7.90
2019-03-09T01:05:21.212Z,7.90
2019-03-09T01:07:49.552Z,7.90
2019-03-09T01:10:17.872Z,7.90
2019-03-09T01:12:46.169Z,7.90
2019-03-09T01:15:15.146Z,7.90
2019-03-09T01:17:43.465Z,7.90
2019-03-09T01:20:14.190Z,7.90
2019-03-09T01:22:42.418Z,7.90
2019-03-09T01:25:11.532Z,7.90
2019-03-09T01:27:39.810Z,7.90
2019-03-09T01:30:11.243Z,7.90
2019-03-09T01:32:39.486Z,7.90
2019-03-09T01:35:07.727Z,7.90
2019-03-09T01:37:35.993Z,7.90
2019-03-09T01:40:07.448Z,7.90
2019-03-09T01:42:35.693Z,8.00
2019-03-09T01:45:05.485Z,8.00
2019-03-09T01:47:33.754Z,7.90
2019-03-09T01:50:02.079Z,7.90
2019-03-09T01:52:30.384Z,7.90
2019-03-09T01:54:58.657Z,7.90
2019-03-09T01:57:26.925Z,7.90
2019-03-09T01:59:55.455Z,7.90
2019-03-09T02:02:23.698Z,7.80
2019-03-09T02:04:51.953Z,7.90
2019-03-09T02:07:20.245Z,7.80
2019-03-09T02:09:50.122Z,7.80
2019-03-09T02:12:18.439Z,7.80
2019-03-09T02:14:46.771Z,7.70
2019-03-09T02:17:15.083Z,7.70
2019-03-09T02:19:43.318Z,7.70
2019-03-09T02:22:11.601Z,7.60
2019-03-09T02:24:41.471Z,7.70
2019-03-09T02:27:09.727Z,7.60
2019-03-09T02:29:37.989Z,7.70
2019-03-09T02:32:06.230Z,7.60
2019-03-09T02:34:37.510Z,7.70
2019-03-09T02:37:07.367Z,7.70
2019-03-09T02:39:37.304Z,7.70
2019-03-09T02:42:05.582Z,7.70
2019-03-09T02:44:33.987Z,7.70
2019-03-09T02:47:02.325Z,7.80
2019-03-09T02:49:30.755Z,7.80
2019-03-09T02:51:59.005Z,7.80
2019-03-09T02:54:27.692Z,7.80
2019-03-09T02:56:55.998Z,7.80
2019-03-09T02:59:25.851Z,7.80
2019-03-09T03:02:01.707Z,7.80
2019-03-09T03:04:29.939Z,7.70
2019-03-09T03:06:58.477Z,7.80
2019-03-09T03:09:26.719Z,7.80
2019-03-09T03:11:55.039Z,7.70
2019-03-09T03:14:23.336Z,7.70
2019-03-09T03:16:51.577Z,7.70
2019-03-09T03:19:19.992Z,7.70
2019-03-09T03:21:48.261Z,7.70
2019-03-09T03:24:16.496Z,7.80
2019-03-09T03:26:44.743Z,7.80
2019-03-09T03:29:12.989Z,7.80
2019-03-09T03:31:41.242Z,7.80
2019-03-09T03:34:11.693Z,7.80
2019-03-09T03:36:41.635Z,7.90
2019-03-09T03:39:09.854Z,7.90
2019-03-09T03:41:39.705Z,7.90
2019-03-09T03:44:07.982Z,7.90
2019-03-09T03:46:36.274Z,7.90
2019-03-09T03:49:06.941Z,7.90
2019-03-09T03:51:35.223Z,7.90
2019-03-09T03:54:03.477Z,7.90
2019-03-09T03:56:31.719Z,7.90
2019-03-09T03:58:59.964Z,7.90
2019-03-09T04:01:28.269Z,7.90
2019-03-09T04:03:56.500Z,7.90
2019-03-09T04:06:24.821Z,7.90
2019-03-09T04:08:53.083Z,7.90
2019-03-09T04:11:21.331Z,7.90
2019-03-09T04:13:49.555Z,7.90
2019-03-09T04:16:17.812Z,7.90
2019-03-09T04:18:46.055Z,8.00
2019-03-09T04:21:14.325Z,7.90
2019-03-09T04:23:42.575Z,7.90
2019-03-09T04:26:10.807Z,7.90
2019-03-09T04:28:39.060Z,7.90
2019-03-09T04:31:07.301Z,7.90
2019-03-09T04:33:35.559Z,7.80
2019-03-09T04:36:03.787Z,7.80
2019-03-09T04:38:32.010Z,7.90
2019-03-09T04:41:00.290Z,7.90
2019-03-09T04:43:28.519Z,7.80
2019-03-09T04:45:56.801Z,7.80
2019-03-09T04:48:25.032Z,7.80
2019-03-09T04:50:53.281Z,7.80
2019-03-09T04:53:21.535Z,7.80
2019-03-09T04:55:49.934Z,7.80
2019-03-09T04:58:18.181Z,7.80
2019-03-09T05:00:46.466Z,7.80
2019-03-09T05:03:14.716Z,7.80
2019-03-09T05:05:42.961Z,7.80
2019-03-09T05:08:17.491Z,7.80
2019-03-09T05:10:52.075Z,7.80
2019-03-09T05:13:26.390Z,7.80
2019-03-09T05:15:54.655Z,7.80
2019-03-09T05:18:22.886Z,7.90
2019-03-09T05:20:51.128Z,7.80
2019-03-09T05:23:19.384Z,7.90
2019-03-09T05:25:47.670Z,7.90
2019-03-09T05:28:15.907Z,7.90
2019-03-09T05:30:45.783Z,7.90
2019-03-09T05:33:14.031Z,7.90
2019-03-09T05:35:42.256Z,7.90
2019-03-09T05:38:10.526Z,8.00
2019-03-09T05:40:38.850Z,7.90
2019-03-09T05:43:07.081Z,7.90
2019-03-09T05:45:35.323Z,8.00
2019-03-09T05:48:03.577Z,7.90
2019-03-09T05:50:31.875Z,7.90
2019-03-09T05:53:18.705Z,7.90
2019-03-09T05:55:46.966Z,7.90
2019-03-09T05:58:15.209Z,7.90
2019-03-09T06:00:43.823Z,7.90
2019-03-09T06:03:12.069Z,8.00
2019-03-09T06:05:42.745Z,7.90
2019-03-09T06:08:11.000Z,8.00
2019-03-09T06:10:39.260Z,8.00
2019-03-09T06:13:07.529Z,8.00
2019-03-09T06:15:35.784Z,8.10
2019-03-09T06:18:06.174Z,8.10
2019-03-09T06:20:34.029Z,8.10
2019-03-09T06:23:02.254Z,8.10
2019-03-09T06:25:30.482Z,8.10
2019-03-09T06:27:58.742Z,8.10
2019-03-09T06:30:27.019Z,8.10
2019-03-09T06:33:20.735Z,8.20
2019-03-09T06:35:49.952Z,8.30
2019-03-09T06:38:36.688Z,8.30
2019-03-09T06:41:07.173Z,8.30
2019-03-09T06:43:35.418Z,8.30
2019-03-09T06:46:05.934Z,8.50
2019-03-09T06:48:33.634Z,8.40
2019-03-09T06:51:02.049Z,8.40
2019-03-09T06:53:30.299Z,8.40
2019-03-09T06:55:58.761Z,8.50
2019-03-09T06:58:27.115Z,8.50
2019-03-09T07:00:57.006Z,8.60
2019-03-09T07:03:25.611Z,8.60
2019-03-09T07:05:53.856Z,8.70
2019-03-09T07:08:22.186Z,8.80
2019-03-09T07:10:50.520Z,8.80
2019-03-09T07:13:18.751Z,8.80
2019-03-09T07:15:47.399Z,8.80
2019-03-09T07:18:17.101Z,8.80
2019-03-09T07:20:45.504Z,8.90
2019-03-09T07:23:14.491Z,8.80
2019-03-09T07:25:46.142Z,8.90
2019-03-09T07:28:14.881Z,8.60
2019-03-09T07:30:43.311Z,9.00
2019-03-09T07:33:11.571Z,9.00
2019-03-09T07:35:39.856Z,8.90
2019-03-09T07:38:08.191Z,8.80
2019-03-09T07:40:36.477Z,8.60
2019-03-09T07:43:04.720Z,8.60
2019-03-09T07:45:33.080Z,8.60
2019-03-09T07:48:01.430Z,8.60
2019-03-09T07:50:29.805Z,8.60
2019-03-09T07:52:58.296Z,8.50
2019-03-09T07:55:26.629Z,8.60
2019-03-09T07:58:00.255Z,8.40
2019-03-09T08:00:28.522Z,8.20
2019-03-09T08:02:56.828Z,8.10
2019-03-09T08:05:25.085Z,8.30
2019-03-09T08:07:53.350Z,8.40
2019-03-09T08:10:24.395Z,8.30
2019-03-09T08:12:52.771Z,8.50
2019-03-09T08:15:21.490Z,8.40
2019-03-09T08:17:49.789Z,8.30
2019-03-09T08:20:21.906Z,8.60
2019-03-09T08:22:50.155Z,8.50
2019-03-09T08:25:25.358Z,8.50
2019-03-09T08:27:53.632Z,8.60
2019-03-09T08:30:23.716Z,8.60
2019-03-09T08:32:52.140Z,8.40
2019-03-09T08:35:20.525Z,8.60
2019-03-09T08:37:49.933Z,8.50
2019-03-09T08:40:19.778Z,8.80
2019-03-09T08:42:48.148Z,8.80
2019-03-09T08:45:20.433Z,8.60
2019-03-09T08:47:52.425Z,8.50
2019-03-09T08:50:20.532Z,8.80
2019-03-09T08:52:51.475Z,8.80
2019-03-09T08:55:19.760Z,8.90
2019-03-09T08:57:51.051Z,8.90
2019-03-09T09:00:33.164Z,9.10
2019-03-09T09:03:01.474Z,9.10
2019-03-09T09:05:29.718Z,9.10
2019-03-09T09:07:57.970Z,9.20
2019-03-09T09:10:26.349Z,9.20
2019-03-09T09:12:54.606Z,9.30
2019-03-09T09:15:22.929Z,9.30
2019-03-09T09:17:51.170Z,9.30
2019-03-09T09:20:26.814Z,9.30
2019-03-09T09:22:55.083Z,9.40
2019-03-09T09:25:23.412Z,9.30
2019-03-09T09:27:52.308Z,9.40
2019-03-09T09:30:23.681Z,9.40
2019-03-09T09:32:52.354Z,9.50
2019-03-09T09:35:20.582Z,9.60
2019-03-09T09:37:48.915Z,9.60
2019-03-09T09:40:18.604Z,9.70
2019-03-09T09:42:47.026Z,9.70
2019-03-09T09:45:15.301Z,9.80
2019-03-09T09:47:43.618Z,9.80
2019-03-09T09:50:13.619Z,9.90
2019-03-09T09:52:41.936Z,10.00
2019-03-09T09:55:12.439Z,9.90
2019-03-09T09:57:40.680Z,10.00
2019-03-09T10:00:28.659Z,10.00
2019-03-09T10:02:56.949Z,10.10
2019-03-09T10:05:25.378Z,10.10
2019-03-09T10:07:53.722Z,10.20
2019-03-09T10:10:22.700Z,10.20
2019-03-09T10:12:51.074Z,10.20
2019-03-09T10:15:27.480Z,10.30
2019-03-09T10:17:55.755Z,10.40
2019-03-09T10:20:24.210Z,10.60
2019-03-09T10:23:03.025Z,10.60
2019-03-09T10:25:22.599Z,10.70
2019-03-09T10:27:50.938Z,10.70
2019-03-09T10:30:20.740Z,10.80
2019-03-09T10:32:49.054Z,10.90
2019-03-09T10:35:19.380Z,10.90
2019-03-09T10:37:52.159Z,10.90
2019-03-09T10:40:20.488Z,10.90
2019-03-09T10:42:48.904Z,10.90
2019-03-09T10:45:20.799Z,10.90
2019-03-09T10:47:49.893Z,10.90
2019-03-09T10:50:19.708Z,10.90
2019-03-09T10:52:48.005Z,11.10
2019-03-09T10:55:27.225Z,10.90
2019-03-09T10:57:55.559Z,10.90
2019-03-09T11:00:32.015Z,10.90
2019-03-09T11:03:00.304Z,10.90
2019-03-09T11:05:28.616Z,11.10
2019-03-09T11:07:56.852Z,11.10
2019-03-09T11:10:25.113Z,11.00
2019-03-09T11:12:53.351Z,11.00
2019-03-09T11:15:21.631Z,10.90
2019-03-09T11:17:49.942Z,11.00
2019-03-09T11:20:19.134Z,11.10
2019-03-09T11:22:47.531Z,11.20
2019-03-09T11:25:15.783Z,11.20
2019-03-09T11:27:44.030Z,11.30
2019-03-09T11:30:20.853Z,11.50
2019-03-09T11:32:49.105Z,11.50
2019-03-09T11:35:17.369Z,11.60
2019-03-09T11:37:45.619Z,11.60
2019-03-09T11:40:15.747Z,11.60
2019-03-09T11:42:44.020Z,11.50
2019-03-09T11:45:16.848Z,11.50
2019-03-09T11:47:45.096Z,11.50
2019-03-09T11:50:17.661Z,11.50
2019-03-09T11:52:46.087Z,11.50
2019-03-09T11:55:16.545Z,11.50
2019-03-09T11:57:44.877Z,11.50
2019-03-09T12:00:35.185Z,11.60
2019-03-09T12:03:06.446Z,11.60
2019-03-09T12:05:34.745Z,11.60
2019-03-09T12:08:02.982Z,11.60
2019-03-09T12:10:31.289Z,11.60
2019-03-09T12:12:59.541Z,11.60
2019-03-09T12:15:27.794Z,11.60
2019-03-09T12:17:56.045Z,11.60
2019-03-09T12:20:25.968Z,11.60
2019-03-09T12:23:01.238Z,11.50
2019-03-09T12:25:24.257Z,11.50
2019-03-09T12:27:52.638Z,11.50
2019-03-09T12:30:20.965Z,11.50
2019-03-09T12:32:49.260Z,11.60
2019-03-09T12:35:17.543Z,11.70
2019-03-09T12:37:45.826Z,11.80
2019-03-09T12:42:45.332Z,12.00
2019-03-09T12:45:16.811Z,12.20
2019-03-09T12:47:45.164Z,12.30
2019-03-09T12:50:23.563Z,12.50
2019-03-09T12:52:51.819Z,12.70
2019-03-09T12:55:20.115Z,12.90
2019-03-09T12:57:48.394Z,13.00
2019-03-09T13:00:21.214Z,13.00
2019-03-09T13:02:49.547Z,13.00
2019-03-09T13:05:18.160Z,13.10
2019-03-09T13:07:46.478Z,13.20
2019-03-09T13:10:15.682Z,13.40
2019-03-09T13:12:43.918Z,13.40
2019-03-09T13:15:12.176Z,13.50
2019-03-09T13:17:40.446Z,13.50
2019-03-09T13:20:11.102Z,13.50
2019-03-09T13:22:39.399Z,13.50
2019-03-09T13:25:07.855Z,13.50
2019-03-09T13:27:36.233Z,13.60
2019-03-09T13:30:13.083Z,13.60
2019-03-09T13:32:41.353Z,13.70
2019-03-09T13:35:09.587Z,13.60
2019-03-09T13:37:37.844Z,13.50
2019-03-09T13:40:08.244Z,13.40
2019-03-09T13:42:36.510Z,13.20
2019-03-09T13:45:07.501Z,13.10
2019-03-09T13:47:35.759Z,13.00
2019-03-09T13:50:05.769Z,12.90
2019-03-09T13:52:34.008Z,12.90
2019-03-09T13:55:02.286Z,12.80
2019-03-09T13:57:30.521Z,12.70
2019-03-09T13:59:58.809Z,12.70
2019-03-09T14:02:28.676Z,12.60
2019-03-09T14:04:56.944Z,12.50
2019-03-09T14:07:25.624Z,12.40
2019-03-09T14:09:53.970Z,12.40
2019-03-09T14:12:23.919Z,12.30
2019-03-09T14:14:59.548Z,12.20
2019-03-09T14:17:30.901Z,12.20
2019-03-09T14:19:59.157Z,12.10
2019-03-09T14:22:38.917Z,12.20
2019-03-09T14:25:09.713Z,12.20
2019-03-09T14:27:38.040Z,12.10
2019-03-09T14:30:17.591Z,12.10
2019-03-09T14:32:47.495Z,12.00
2019-03-09T14:35:15.872Z,12.10
2019-03-09T14:37:46.387Z,12.00
2019-03-09T14:40:16.614Z,12.00
2019-03-09T14:42:47.793Z,12.00
2019-03-09T14:45:19.942Z,12.00
2019-03-09T14:47:48.223Z,11.90
2019-03-09T14:50:25.884Z,11.90
2019-03-09T14:53:11.089Z,11.90
2019-03-09T14:55:39.658Z,12.00
2019-03-09T14:58:08.058Z,12.00
2019-03-09T15:00:36.465Z,11.90
2019-03-09T15:03:04.802Z,12.00
2019-03-09T15:05:41.630Z,12.00
2019-03-09T15:08:10.022Z,12.00
2019-03-09T15:10:38.402Z,12.00
2019-03-09T15:13:06.872Z,12.00
2019-03-09T15:15:35.221Z,12.00
2019-03-09T15:18:03.602Z,12.10
2019-03-09T15:20:31.958Z,12.00
2019-03-09T15:23:00.282Z,12.00
2019-03-09T15:25:32.921Z,12.00
2019-03-09T15:28:01.230Z,12.00
2019-03-09T15:30:29.564Z,12.00
2019-03-09T15:32:57.952Z,12.00
2019-03-09T15:35:26.380Z,12.00
2019-03-09T15:37:54.672Z,12.00
2019-03-09T15:40:25.747Z,11.90
2019-03-09T15:42:54.953Z,11.80
2019-03-09T15:45:23.276Z,11.70
2019-03-09T15:47:51.560Z,11.70
2019-03-09T15:50:21.048Z,11.70
2019-03-09T15:52:49.436Z,11.70
2019-03-09T15:55:17.849Z,11.70
2019-03-09T15:57:46.244Z,11.80
2019-03-09T16:00:22.220Z,11.60
2019-03-09T16:02:50.461Z,12.10
2019-03-09T16:05:18.869Z,11.60
2019-03-09T16:07:47.356Z,11.50
2019-03-09T16:10:22.940Z,11.50
2019-03-09T16:12:51.207Z,11.40
2019-03-09T16:15:19.560Z,11.30
2019-03-09T16:17:47.940Z,11.30
2019-03-09T16:20:19.527Z,11.20
2019-03-09T16:22:47.887Z,11.20
2019-03-09T16:25:16.343Z,11.20
2019-03-09T16:27:44.663Z,11.20
2019-03-09T16:30:23.032Z,11.10
2019-03-09T16:32:51.358Z,11.10
2019-03-09T16:35:19.641Z,11.10
2019-03-09T16:37:49.045Z,11.00
2019-03-09T16:40:19.050Z,10.90
2019-03-09T16:42:47.363Z,11.00
2019-03-09T16:45:15.666Z,10.90
2019-03-09T16:47:43.948Z,10.40
2019-03-09T16:50:14.203Z,10.90
2019-03-09T16:52:42.466Z,10.80
2019-03-09T16:55:11.103Z,10.90
2019-03-09T16:57:39.394Z,10.80
2019-03-09T17:00:21.859Z,10.80
2019-03-09T17:02:50.242Z,10.80
2019-03-09T17:05:18.713Z,10.90
2019-03-09T17:07:47.018Z,10.80
2019-03-09T17:10:18.740Z,10.70
2019-03-09T17:12:46.213Z,10.80
2019-03-09T17:15:17.025Z,10.80
2019-03-09T17:17:45.337Z,10.70
2019-03-09T17:20:15.380Z,10.70
2019-03-09T17:22:43.777Z,10.60
2019-03-09T17:25:12.025Z,10.70
2019-03-09T17:27:47.964Z,10.70
2019-03-09T17:30:17.819Z,10.70
2019-03-09T17:32:46.147Z,10.70
2019-03-09T17:35:14.412Z,10.70
2019-03-09T17:37:42.959Z,10.70
2019-03-09T17:40:13.103Z,10.70
2019-03-09T17:42:41.471Z,10.70
2019-03-09T17:45:21.286Z,10.60
2019-03-09T17:47:49.660Z,10.70
2019-03-09T17:50:17.950Z,10.70
2019-03-09T17:52:46.178Z,10.70
2019-03-09T17:55:14.440Z,10.70
2019-03-09T17:57:42.786Z,10.70
2019-03-09T18:00:23.259Z,10.80
2019-03-09T18:02:51.521Z,10.70
2019-03-09T18:05:20.144Z,10.80
2019-03-09T18:07:48.583Z,10.70
2019-03-09T18:10:32.187Z,10.70
2019-03-09T18:13:00.432Z,10.70
2019-03-09T18:15:28.752Z,10.80
2019-03-09T18:17:56.979Z,10.70
2019-03-09T18:20:25.299Z,10.70
2019-03-09T18:22:53.565Z,10.70
2019-03-09T18:25:21.884Z,10.70
2019-03-09T18:27:50.252Z,10.80
2019-03-09T18:30:18.547Z,10.70
2019-03-09T18:32:46.841Z,10.70
2019-03-09T18:35:15.080Z,10.70
2019-03-09T18:37:43.344Z,10.70
2019-03-09T18:40:16.328Z,10.60
2019-03-09T18:42:44.625Z,10.60
2019-03-09T18:45:21.599Z,10.70
2019-03-09T18:47:49.956Z,10.70
2019-03-09T18:50:18.296Z,10.70
2019-03-09T18:52:47.001Z,10.70
2019-03-09T18:55:15.317Z,10.70
2019-03-09T18:57:43.571Z,10.70
2019-03-09T19:00:19.082Z,10.60
2019-03-09T19:02:47.341Z,10.70
2019-03-09T19:05:15.600Z,10.70
2019-03-09T19:07:43.860Z,10.70
2019-03-09T19:10:20.229Z,10.60
2019-03-09T19:12:48.493Z,10.70
2019-03-09T19:15:17.768Z,10.70
2019-03-09T19:17:46.028Z,10.70
2019-03-09T19:20:18.307Z,10.60
2019-03-09T19:22:46.576Z,10.70
2019-03-09T19:25:15.274Z,10.70
2019-03-09T19:27:43.603Z,10.70
2019-03-09T19:30:19.160Z,10.80
2019-03-09T19:32:47.507Z,10.80
2019-03-09T19:35:15.776Z,10.80
2019-03-09T19:37:44.054Z,10.80
2019-03-09T19:40:14.414Z,10.80
2019-03-09T19:42:42.666Z,10.80
2019-03-09T19:45:13.729Z,10.80
2019-03-09T19:47:41.959Z,10.90
2019-03-09T19:50:12.674Z,10.90
2019-03-09T19:52:40.931Z,10.90
2019-03-09T19:55:09.456Z,10.90
2019-03-09T19:57:37.692Z,10.90
2019-03-09T20:00:11.480Z,10.90
2019-03-09T20:02:39.745Z,10.90
2019-03-09T20:05:09.429Z,10.90
2019-03-09T20:07:37.732Z,10.90
2019-03-09T20:10:12.066Z,11.00
2019-03-09T20:12:40.300Z,10.90
2019-03-09T20:15:11.843Z,10.90
2019-03-09T20:17:40.122Z,10.90
2019-03-09T20:20:10.906Z,11.00
2019-03-09T20:22:39.162Z,11.00
2019-03-09T20:25:08.758Z,11.00
2019-03-09T20:27:37.093Z,11.00
2019-03-09T20:30:11.307Z,11.00
2019-03-09T20:32:39.565Z,11.10
2019-03-09T20:35:08.468Z,11.10
2019-03-09T20:37:36.771Z,11.20
2019-03-09T20:40:16.329Z,11.20
2019-03-09T20:42:44.587Z,11.20
2019-03-09T20:45:14.888Z,11.20
2019-03-09T20:47:43.212Z,11.20
2019-03-09T20:50:14.251Z,11.20
2019-03-09T20:52:42.525Z,11.20
2019-03-09T20:55:10.767Z,11.20
2019-03-09T20:57:39.017Z,11.20
2019-03-09T21:00:12.796Z,11.20
2019-03-09T21:02:41.036Z,11.20
2019-03-09T21:05:09.384Z,11.20
2019-03-09T21:07:37.614Z,11.20
2019-03-09T21:10:09.277Z,11.20
2019-03-09T21:12:37.535Z,11.20
2019-03-09T21:15:06.346Z,11.20
2019-03-09T21:17:34.691Z,11.30
2019-03-09T21:20:02.943Z,11.20
2019-03-09T21:22:31.256Z,11.20
2019-03-09T21:24:59.655Z,11.30
2019-03-09T21:27:27.910Z,11.20
2019-03-09T21:29:56.177Z,11.30
2019-03-09T21:32:24.451Z,11.30
2019-03-09T21:34:52.769Z,11.20
2019-03-09T21:37:21.028Z,11.30
2019-03-09T21:39:49.298Z,11.30
2019-03-09T21:42:17.531Z,11.30
2019-03-09T21:44:45.825Z,11.20
2019-03-09T21:47:14.068Z,11.30
2019-03-09T21:49:42.328Z,11.20
2019-03-09T21:52:10.599Z,11.30
2019-03-09T21:54:38.862Z,11.30
2019-03-09T21:57:07.159Z,11.30
2019-03-09T21:59:35.420Z,11.30
2019-03-09T22:02:03.961Z,11.30
2019-03-09T22:04:32.226Z,11.30
2019-03-09T22:07:00.467Z,11.30
2019-03-09T22:09:28.740Z,11.30
2019-03-09T22:11:56.991Z,11.30
2019-03-09T22:14:25.285Z,11.40
2019-03-09T22:16:56.903Z,11.30
2019-03-09T22:19:23.498Z,11.40
2019-03-09T22:21:51.743Z,11.30
2019-03-09T22:24:20.093Z,11.30
2019-03-09T22:26:48.351Z,11.40
2019-03-09T22:29:16.591Z,11.40
2019-03-09T22:31:44.920Z,11.40
2019-03-09T22:34:13.194Z,11.40
2019-03-09T22:36:41.543Z,11.40
2019-03-09T22:39:09.790Z,11.40
2019-03-09T22:41:38.091Z,11.40
2019-03-09T22:44:06.402Z,11.40
2019-03-09T22:46:34.640Z,11.50
2019-03-09T22:49:02.953Z,11.40
2019-03-09T22:51:31.324Z,11.40
2019-03-09T22:53:59.564Z,11.30
2019-03-09T22:56:27.993Z,11.40
2019-03-09T22:58:56.244Z,11.50
2019-03-09T23:01:24.532Z,11.40
2019-03-09T23:03:52.882Z,11.40
2019-03-09T23:06:21.213Z,11.50
2019-03-09T23:08:49.482Z,11.40
2019-03-09T23:11:17.840Z,11.40
2019-03-09T23:13:46.098Z,11.40
2019-03-09T23:16:14.339Z,11.40
2019-03-09T23:18:42.659Z,11.50
2019-03-09T23:21:10.898Z,11.40
2019-03-09T23:23:39.190Z,11.40
2019-03-09T23:26:07.550Z,11.40
2019-03-09T23:28:44.103Z,11.40
2019-03-09T23:31:12.396Z,11.40
2019-03-09T23:33:40.650Z,11.50
2019-03-09T23:36:08.910Z,11.30
2019-03-09T23:38:37.156Z,11.40
2019-03-09T23:41:05.402Z,11.30
2019-03-09T23:43:33.658Z,11.40
2019-03-09T23:46:01.903Z,11.40
2019-03-09T23:48:30.175Z,11.40
2019-03-09T23:50:58.489Z,11.40
2019-03-09T23:53:26.749Z,11.40
2019-03-09T23:55:55.025Z,11.30
2019-03-09T23:58:23.268Z,11.40
